Time;durP1;ratioP1;P1;durP2;ratioP2;P2;SDS_P1;SDS_P2;PMS_P1;PMS_P2;Temp;Humidity;BMP_temperature;BMP_pressure;BME280_temperature;BME280_humidity;BME280_pressure;Samples;Min_cycle;Max_cycle;Signal;HPM_P1;HPM_P2
2022/01/04 00:01:15;;;;;;;;;;;9.10;99.90;;;;;;5075302;28;20007;-54
2022/01/04 00:03:43;;;;;;;;;;;9.10;99.90;;;;;;5075425;28;19928;-54
2022/01/04 00:06:09;;;;;;;;;;;9.20;99.90;;;;;;5074652;28;19983;-54
2022/01/04 00:08:35;;;;;;;;;;;9.20;99.90;;;;;;5057286;28;19913;-54
2022/01/04 00:11:14;;;;;;;;;;;9.20;99.90;;;;;;5055036;28;19909;-53
2022/01/04 00:13:39;;;;;;;;;;;9.10;99.90;;;;;;5054457;28;19999;-54
2022/01/04 00:16:07;;;;;;;;;;;9.20;99.90;;;;;;5055088;28;19940;-54
2022/01/04 00:18:33;;;;;;;;;;;9.20;99.90;;;;;;5071980;28;19912;-55
2022/01/04 00:20:59;;;;;;;;;;;9.20;99.90;;;;;;5073818;28;19921;-54
2022/01/04 00:23:25;;;;;;;;;;;9.30;99.90;;;;;;5074767;28;19972;-54
2022/01/04 00:25:50;;;;;;;;;;;9.30;99.90;;;;;;5072853;28;19993;-54
2022/01/04 00:28:17;;;;;;;;;;;9.30;99.90;;;;;;5074215;28;19912;-54
2022/01/04 00:30:43;;;;;;;;;;;9.30;99.90;;;;;;5074654;28;20367;-54
2022/01/04 00:33:10;;;;;;;;;;;9.30;99.90;;;;;;5074943;28;19909;-54
2022/01/04 00:35:35;;;;;;;;;;;9.40;99.90;;;;;;5067917;28;20005;-55
2022/01/04 00:38:01;;;;;;;;;;;9.30;99.90;;;;;;5054644;28;19952;-54
2022/01/04 00:40:26;;;;;;;;;;;9.30;99.90;;;;;;5054564;28;19916;-54
2022/01/04 00:42:55;;;;;;;;;;;9.30;99.90;;;;;;5053437;28;19932;-55
2022/01/04 00:45:22;;;;;;;;;;;9.30;99.90;;;;;;5056731;28;19924;-54
2022/01/04 00:50:19;;;;;;;;;;;9.30;99.90;;;;;;5074527;28;20259;-54
2022/01/04 00:52:45;;;;;;;;;;;9.20;99.90;;;;;;5074418;28;19931;-54
2022/01/04 00:55:10;;;;;;;;;;;9.20;99.90;;;;;;5072003;28;20399;-55
2022/01/04 00:57:36;;;;;;;;;;;9.20;99.90;;;;;;5054341;28;19917;-54
2022/01/04 01:00:03;;;;;;;;;;;9.10;99.90;;;;;;5054202;28;19909;-54
2022/01/04 01:02:28;;;;;;;;;;;9.20;99.90;;;;;;5062657;28;19912;-54
2022/01/04 01:04:54;;;;;;;;;;;9.20;99.90;;;;;;5074057;28;19963;-55
2022/01/04 01:07:19;;;;;;;;;;;9.20;99.90;;;;;;5073885;28;19920;-54
2022/01/04 01:12:33;;;;;;;;;;;9.20;99.90;;;;;;5035941;28;20310;-55
2022/01/04 01:14:59;;;;;;;;;;;9.20;99.90;;;;;;5053982;28;19913;-55
2022/01/04 01:17:24;;;;;;;;;;;9.20;99.90;;;;;;5053347;28;19970;-55
2022/01/04 01:19:50;;;;;;;;;;;9.20;99.90;;;;;;5053875;28;19935;-55
2022/01/04 01:22:15;;;;;;;;;;;9.20;99.90;;;;;;5059251;28;19935;-55
2022/01/04 01:24:41;;;;;;;;;;;9.20;99.90;;;;;;5073173;28;19916;-55
2022/01/04 01:27:06;;;;;;;;;;;9.20;99.90;;;;;;5073735;28;20375;-54
2022/01/04 01:29:31;;;;;;;;;;;9.20;99.90;;;;;;5073728;28;19909;-55
2022/01/04 01:31:57;;;;;;;;;;;9.20;99.90;;;;;;5071508;28;20013;-55
2022/01/04 01:34:23;;;;;;;;;;;9.20;99.90;;;;;;5073675;28;19909;-55
2022/01/04 01:36:49;;;;;;;;;;;9.20;99.90;;;;;;5073635;28;19908;-55
2022/01/04 01:39:14;;;;;;;;;;;9.30;99.90;;;;;;5072991;28;19979;-55
2022/01/04 01:41:40;;;;;;;;;;;9.30;99.90;;;;;;5061063;28;19913;-55
2022/01/04 01:44:05;;;;;;;;;;;9.30;99.90;;;;;;5052966;28;19970;-54
2022/01/04 01:46:31;;;;;;;;;;;9.30;99.90;;;;;;5053567;28;19909;-54
2022/01/04 01:48:56;;;;;;;;;;;9.20;99.90;;;;;;5053535;28;19909;-55
2022/01/04 01:51:23;;;;;;;;;;;9.30;99.90;;;;;;5060820;28;20346;-54
2022/01/04 01:53:48;;;;;;;;;;;9.20;99.90;;;;;;5072429;28;19912;-54
2022/01/04 01:56:14;;;;;;;;;;;9.30;99.90;;;;;;5073314;28;19913;-55
2022/01/04 01:58:39;;;;;;;;;;;9.30;99.90;;;;;;5072888;28;20003;-55
2022/01/04 02:01:05;;;;;;;;;;;9.30;99.90;;;;;;5066862;28;19912;-55
2022/01/04 02:03:30;;;;;;;;;;;9.30;99.90;;;;;;5053222;28;19921;-55
2022/01/04 02:05:56;;;;;;;;;;;9.30;99.90;;;;;;5052796;28;19913;-55
2022/01/04 02:08:22;;;;;;;;;;;9.30;99.90;;;;;;5053098;28;19992;-55
2022/01/04 02:10:47;;;;;;;;;;;9.30;99.90;;;;;;5056512;28;19913;-55
2022/01/04 02:13:13;;;;;;;;;;;9.30;99.90;;;;;;5069911;28;19920;-55
2022/01/04 02:15:39;;;;;;;;;;;9.30;99.90;;;;;;5071362;28;20399;-55
2022/01/04 02:18:05;;;;;;;;;;;9.30;99.90;;;;;;5073152;28;19915;-55
2022/01/04 02:20:30;;;;;;;;;;;9.30;99.90;;;;;;5072631;28;19909;-55
2022/01/04 02:22:56;;;;;;;;;;;9.30;99.90;;;;;;5062704;28;19917;-54
2022/01/04 02:25:21;;;;;;;;;;;9.30;99.90;;;;;;5053031;28;19978;-55
2022/01/04 02:27:47;;;;;;;;;;;9.30;99.90;;;;;;5068362;28;19948;-55
2022/01/04 02:30:15;;;;;;;;;;;9.20;99.90;;;;;;5073202;28;20371;-55
2022/01/04 02:32:41;;;;;;;;;;;9.20;99.90;;;;;;5064927;28;19912;-55
2022/01/04 02:35:06;;;;;;;;;;;9.20;99.90;;;;;;5052375;28;19912;-55
2022/01/04 02:37:33;;;;;;;;;;;9.20;99.90;;;;;;5052856;28;19963;-54
2022/01/04 02:39:58;;;;;;;;;;;9.10;99.90;;;;;;5052951;28;19913;-55
2022/01/04 02:42:24;;;;;;;;;;;9.10;99.90;;;;;;5053274;28;20437;-55
2022/01/04 02:44:49;;;;;;;;;;;9.10;99.90;;;;;;5052891;28;20431;-55
2022/01/04 02:47:15;;;;;;;;;;;9.10;99.90;;;;;;5052750;28;19909;-55
2022/01/04 02:49:41;;;;;;;;;;;9.00;99.90;;;;;;5059360;28;19950;-54
2022/01/04 02:52:06;;;;;;;;;;;9.00;99.90;;;;;;5072648;28;20339;-55
2022/01/04 02:54:32;;;;;;;;;;;8.90;99.90;;;;;;5072288;28;19916;-55
2022/01/04 02:56:57;;;;;;;;;;;8.90;99.90;;;;;;5072804;28;19915;-55
2022/01/04 02:59:23;;;;;;;;;;;8.90;99.90;;;;;;5067887;28;19979;-55
2022/01/04 03:01:48;;;;;;;;;;;8.80;99.90;;;;;;5052113;28;19920;-55
2022/01/04 03:04:14;;;;;;;;;;;8.80;99.90;;;;;;5052529;28;19932;-55
2022/01/04 03:06:39;;;;;;;;;;;8.80;99.90;;;;;;5055371;28;19913;-54
2022/01/04 03:09:05;;;;;;;;;;;8.80;99.90;;;;;;5057316;28;19909;-55
2022/01/04 03:11:31;;;;;;;;;;;8.80;99.90;;;;;;5076599;28;20267;-55
2022/01/04 03:13:57;;;;;;;;;;;8.80;99.90;;;;;;5076295;28;19950;-55
2022/01/04 03:16:22;;;;;;;;;;;8.80;99.90;;;;;;5075698;28;19916;-55
2022/01/04 03:19:03;;;;;;;;;;;8.80;99.90;;;;;;5076228;28;20336;-55
2022/01/04 03:21:29;;;;;;;;;;;8.70;99.90;;;;;;5056061;28;19929;-55
2022/01/04 03:23:54;;;;;;;;;;;8.70;99.90;;;;;;5055508;28;19959;-55
2022/01/04 03:26:20;;;;;;;;;;;8.70;99.90;;;;;;5056074;28;20003;-55
2022/01/04 03:28:45;;;;;;;;;;;8.70;99.90;;;;;;5055907;28;20078;-55
2022/01/04 03:31:11;;;;;;;;;;;8.80;99.90;;;;;;5056282;28;19919;-54
2022/01/04 03:33:37;;;;;;;;;;;8.70;99.90;;;;;;5066759;28;19916;-55
2022/01/04 03:36:03;;;;;;;;;;;8.70;99.90;;;;;;5075762;28;19912;-54
2022/01/04 03:38:28;;;;;;;;;;;8.70;99.90;;;;;;5075189;28;19909;-55
2022/01/04 03:40:54;;;;;;;;;;;8.70;99.90;;;;;;5075864;28;19915;-55
2022/01/04 03:43:21;;;;;;;;;;;8.80;99.90;;;;;;5067891;28;20326;-55
2022/01/04 03:45:47;;;;;;;;;;;8.70;99.90;;;;;;5055321;28;19913;-55
2022/01/04 03:48:12;;;;;;;;;;;8.70;99.90;;;;;;5055605;28;19935;-53
2022/01/04 03:50:39;;;;;;;;;;;8.70;99.90;;;;;;5055002;28;19912;-55
2022/01/04 03:53:05;;;;;;;;;;;8.80;99.90;;;;;;5060346;28;19912;-55
2022/01/04 03:55:30;;;;;;;;;;;8.80;99.90;;;;;;5075548;28;20382;-55
2022/01/04 03:57:55;;;;;;;;;;;8.80;99.90;;;;;;5074820;28;19923;-55
2022/01/04 04:00:21;;;;;;;;;;;8.80;99.90;;;;;;5075352;28;19916;-55
2022/01/04 04:02:46;;;;;;;;;;;8.80;99.90;;;;;;5073821;28;20027;-55
2022/01/04 04:05:13;;;;;;;;;;;8.80;99.90;;;;;;5054435;28;19928;-55
2022/01/04 04:07:38;;;;;;;;;;;8.80;99.90;;;;;;5054582;28;20344;-55
2022/01/04 04:10:04;;;;;;;;;;;8.80;99.90;;;;;;5054630;28;19919;-55
2022/01/04 04:12:29;;;;;;;;;;;8.80;99.90;;;;;;5054128;28;19931;-55
2022/01/04 04:14:58;;;;;;;;;;;8.80;99.90;;;;;;5072306;28;20030;-55
2022/01/04 04:17:24;;;;;;;;;;;8.80;99.90;;;;;;5073268;28;19908;-55
2022/01/04 04:19:49;;;;;;;;;;;8.90;99.90;;;;;;5073836;28;19931;-55
2022/01/04 04:22:15;;;;;;;;;;;8.80;99.90;;;;;;5074027;28;19920;-56
2022/01/04 04:24:41;;;;;;;;;;;8.80;99.90;;;;;;5057457;28;19920;-56
2022/01/04 04:27:06;;;;;;;;;;;8.80;99.90;;;;;;5053687;28;20327;-56
2022/01/04 04:29:33;;;;;;;;;;;8.80;99.90;;;;;;5054201;28;19912;-55
2022/01/04 04:31:58;;;;;;;;;;;8.90;99.90;;;;;;5054341;28;19913;-55
2022/01/04 04:34:24;;;;;;;;;;;8.80;99.90;;;;;;5067068;28;19943;-55
2022/01/04 04:36:49;;;;;;;;;;;8.80;99.90;;;;;;5072194;28;19920;-55
2022/01/04 04:39:15;;;;;;;;;;;8.80;99.90;;;;;;5073955;28;19916;-55
2022/01/04 04:41:40;;;;;;;;;;;8.80;99.90;;;;;;5073576;28;20360;-55
2022/01/04 04:44:06;;;;;;;;;;;8.80;99.90;;;;;;5071979;28;20098;-55
2022/01/04 04:46:31;;;;;;;;;;;8.80;99.90;;;;;;5073785;28;19915;-55
2022/01/04 04:48:57;;;;;;;;;;;8.90;99.90;;;;;;5073162;28;20379;-55
2022/01/04 04:51:22;;;;;;;;;;;8.90;99.90;;;;;;5073689;28;20245;-55
2022/01/04 04:53:48;;;;;;;;;;;8.90;99.90;;;;;;5065621;28;19913;-55
2022/01/04 04:56:13;;;;;;;;;;;8.90;99.90;;;;;;5053320;28;20004;-55
2022/01/04 04:58:38;;;;;;;;;;;8.90;99.90;;;;;;5053918;28;19952;-55
2022/01/04 05:01:04;;;;;;;;;;;8.90;99.90;;;;;;5053280;28;19931;-55
2022/01/04 05:03:29;;;;;;;;;;;8.90;99.90;;;;;;5057899;28;20439;-55
2022/01/04 05:05:55;;;;;;;;;;;8.90;99.90;;;;;;5073247;28;19919;-55
2022/01/04 05:08:20;;;;;;;;;;;8.80;99.90;;;;;;5072854;28;19943;-55
2022/01/04 05:10:46;;;;;;;;;;;8.90;99.90;;;;;;5073359;28;19919;-55
2022/01/04 05:13:11;;;;;;;;;;;8.80;99.90;;;;;;5068172;28;19952;-55
2022/01/04 05:15:37;;;;;;;;;;;8.80;99.90;;;;;;5054426;28;20515;-54
2022/01/04 05:18:02;;;;;;;;;;;8.80;99.90;;;;;;5073083;28;20363;-54
2022/01/04 05:20:28;;;;;;;;;;;8.80;99.90;;;;;;5072763;28;19916;-55
2022/01/04 05:22:53;;;;;;;;;;;8.80;99.90;;;;;;5072708;28;19908;-55
2022/01/04 05:25:18;;;;;;;;;;;8.80;99.90;;;;;;5072981;28;19962;-48
2022/01/04 05:27:44;;;;;;;;;;;8.70;99.90;;;;;;5071094;28;19912;-48
2022/01/04 05:30:10;;;;;;;;;;;8.80;99.90;;;;;;5072369;28;19908;-48
2022/01/04 05:32:35;;;;;;;;;;;8.70;99.90;;;;;;5070814;28;20373;-50
2022/01/04 05:35:01;;;;;;;;;;;8.70;99.90;;;;;;5052908;28;19911;-51
2022/01/04 05:37:26;;;;;;;;;;;8.70;99.90;;;;;;5052657;28;20695;-49
2022/01/04 05:39:52;;;;;;;;;;;8.70;99.90;;;;;;5052973;28;19943;-48
2022/01/04 05:42:17;;;;;;;;;;;8.60;99.90;;;;;;5052754;28;19913;-48
2022/01/04 05:44:42;;;;;;;;;;;8.60;99.90;;;;;;5069911;28;19956;-48
2022/01/04 05:47:08;;;;;;;;;;;8.70;99.90;;;;;;5070147;28;20674;-50
2022/01/04 05:49:33;;;;;;;;;;;8.60;99.90;;;;;;5073161;28;19908;-48
2022/01/04 05:51:59;;;;;;;;;;;8.60;99.90;;;;;;5072572;28;20520;-49
2022/01/04 05:54:24;;;;;;;;;;;8.60;99.90;;;;;;5072715;28;19915;-50
2022/01/04 05:56:50;;;;;;;;;;;8.60;99.90;;;;;;5067752;28;19917;-52
2022/01/04 05:59:15;;;;;;;;;;;8.60;99.90;;;;;;5072072;28;19909;-50
2022/01/04 06:01:41;;;;;;;;;;;8.60;99.90;;;;;;5072569;28;19950;-52
2022/01/04 06:04:06;;;;;;;;;;;8.60;99.90;;;;;;5072467;28;19924;-49
2022/01/04 06:06:32;;;;;;;;;;;8.60;99.90;;;;;;5058677;28;19917;-51
2022/01/04 06:08:58;;;;;;;;;;;8.70;99.90;;;;;;5052528;28;19912;-51
2022/01/04 06:11:55;;;;;;;;;;;8.70;99.90;;;;;;5051827;28;19920;-53
2022/01/04 06:16:53;;;;;;;;;;;8.70;99.90;;;;;;5067653;28;19924;-53
2022/01/04 06:19:18;;;;;;;;;;;8.70;99.90;;;;;;5071943;28;19908;-52
2022/01/04 06:21:44;;;;;;;;;;;8.70;99.90;;;;;;5072297;28;19925;-52
2022/01/04 06:24:10;;;;;;;;;;;8.70;99.90;;;;;;5072251;28;19924;-54
2022/01/04 06:26:35;;;;;;;;;;;8.70;99.90;;;;;;5069753;28;20430;-53
2022/01/04 06:29:01;;;;;;;;;;;8.70;99.90;;;;;;5072168;28;19912;-54
2022/01/04 06:31:27;;;;;;;;;;;8.70;99.90;;;;;;5072131;28;19971;-54
2022/01/04 06:33:53;;;;;;;;;;;8.70;99.90;;;;;;5071904;28;20004;-54
2022/01/04 06:36:18;;;;;;;;;;;8.70;99.90;;;;;;5059257;28;19928;-45
2022/01/04 06:38:44;;;;;;;;;;;8.70;99.90;;;;;;5052300;28;19908;-45
2022/01/04 06:41:09;;;;;;;;;;;8.70;99.90;;;;;;5053783;28;19909;-44
2022/01/04 06:43:35;;;;;;;;;;;8.70;99.90;;;;;;5056013;28;19916;-45
2022/01/04 06:46:00;;;;;;;;;;;8.70;99.90;;;;;;5065242;28;19912;-46
2022/01/04 06:48:26;;;;;;;;;;;8.70;99.90;;;;;;5075629;28;20042;-46
2022/01/04 06:50:51;;;;;;;;;;;8.70;99.90;;;;;;5076062;28;20007;-45
2022/01/04 06:53:17;;;;;;;;;;;8.70;99.90;;;;;;5076179;28;19912;-46
2022/01/04 06:55:42;;;;;;;;;;;8.70;99.90;;;;;;5064918;28;19912;-46
2022/01/04 06:58:08;;;;;;;;;;;8.60;99.90;;;;;;5055803;28;19913;-46
2022/01/04 07:00:33;;;;;;;;;;;8.70;99.90;;;;;;5055304;28;20034;-44
2022/01/04 07:02:59;;;;;;;;;;;8.70;99.90;;;;;;5055772;28;19909;-44
2022/01/04 07:05:24;;;;;;;;;;;8.70;99.90;;;;;;5062554;28;19920;-44
2022/01/04 07:07:50;;;;;;;;;;;8.70;99.90;;;;;;5074789;28;19916;-45
2022/01/04 07:10:15;;;;;;;;;;;8.60;99.90;;;;;;5075542;28;19920;-43
2022/01/04 07:12:40;;;;;;;;;;;8.60;99.90;;;;;;5075513;28;19987;-45
2022/01/04 07:15:06;;;;;;;;;;;8.60;99.90;;;;;;5067445;28;19917;-44
2022/01/04 07:17:33;;;;;;;;;;;8.60;99.90;;;;;;5055523;28;19913;-45
2022/01/04 07:19:59;;;;;;;;;;;8.60;99.90;;;;;;5055534;28;19915;-44
2022/01/04 07:22:25;;;;;;;;;;;8.60;99.90;;;;;;5054472;28;19920;-44
2022/01/04 07:24:50;;;;;;;;;;;8.60;99.90;;;;;;5056331;28;20023;-45
2022/01/04 07:27:16;;;;;;;;;;;8.60;99.90;;;;;;5055319;28;20016;-45
2022/01/04 07:29:41;;;;;;;;;;;8.60;99.90;;;;;;5055073;28;20347;-44
2022/01/04 07:32:07;;;;;;;;;;;8.60;99.90;;;;;;5055273;28;19912;-43
2022/01/04 07:34:32;;;;;;;;;;;8.60;99.90;;;;;;5059759;28;19999;-44
2022/01/04 07:36:58;;;;;;;;;;;8.60;99.90;;;;;;5074936;28;19908;-43
2022/01/04 07:39:23;;;;;;;;;;;8.60;99.90;;;;;;5075140;28;20058;-42
2022/01/04 07:41:49;;;;;;;;;;;8.60;99.90;;;;;;5075050;28;19908;-41
2022/01/04 07:44:14;;;;;;;;;;;8.50;99.90;;;;;;5072580;28;20419;-42
2022/01/04 07:46:40;;;;;;;;;;;8.50;99.90;;;;;;5075084;28;20319;-42
2022/01/04 07:49:05;;;;;;;;;;;8.50;99.90;;;;;;5074807;28;20229;-41
2022/01/04 07:51:31;;;;;;;;;;;8.50;99.90;;;;;;5074222;28;19908;-42
2022/01/04 07:53:56;;;;;;;;;;;8.50;99.90;;;;;;5072923;28;20112;-43
2022/01/04 07:56:22;;;;;;;;;;;8.50;99.90;;;;;;5054676;28;19916;-41
2022/01/04 07:58:47;;;;;;;;;;;8.60;99.90;;;;;;5054535;28;19908;-42
2022/01/04 08:01:13;;;;;;;;;;;8.60;99.90;;;;;;5073523;28;20005;-41
2022/01/04 08:03:39;;;;;;;;;;;8.60;99.90;;;;;;5074689;28;19908;-42
2022/01/04 08:06:04;;;;;;;;;;;8.50;99.90;;;;;;5072291;28;19913;-43
2022/01/04 08:08:30;;;;;;;;;;;8.50;99.90;;;;;;5074880;28;19913;-44
2022/01/04 08:10:55;;;;;;;;;;;8.50;99.90;;;;;;5068615;28;20007;-43
2022/01/04 08:13:21;;;;;;;;;;;8.60;99.90;;;;;;5064509;28;19913;-43
2022/01/04 08:15:46;;;;;;;;;;;8.60;99.90;;;;;;5054029;28;20279;-43
2022/01/04 08:18:12;;;;;;;;;;;8.50;99.90;;;;;;5066005;28;19948;-43
2022/01/04 08:20:37;;;;;;;;;;;8.50;99.90;;;;;;5072704;28;19921;-45
2022/01/04 08:23:03;;;;;;;;;;;8.50;99.90;;;;;;5074442;28;20383;-43
2022/01/04 08:25:30;;;;;;;;;;;8.50;99.90;;;;;;5073396;28;19970;-44
2022/01/04 08:27:56;;;;;;;;;;;8.60;99.90;;;;;;5074373;28;19909;-43
2022/01/04 08:30:21;;;;;;;;;;;8.50;99.90;;;;;;5072373;28;20007;-44
2022/01/04 08:32:47;;;;;;;;;;;8.50;99.90;;;;;;5073662;28;19968;-43
2022/01/04 08:35:12;;;;;;;;;;;8.50;99.90;;;;;;5074137;28;19909;-42
2022/01/04 08:37:38;;;;;;;;;;;8.50;99.90;;;;;;5073835;28;19915;-42
2022/01/04 08:40:05;;;;;;;;;;;8.50;99.90;;;;;;5071554;28;19912;-43
2022/01/04 08:42:31;;;;;;;;;;;8.50;99.90;;;;;;5073573;28;19996;-43
2022/01/04 08:44:57;;;;;;;;;;;8.50;99.90;;;;;;5073856;28;20014;-43
2022/01/04 08:47:23;;;;;;;;;;;8.50;99.90;;;;;;5070367;28;19979;-43
2022/01/04 08:49:49;;;;;;;;;;;8.50;99.90;;;;;;5074007;28;20356;-44
2022/01/04 08:52:14;;;;;;;;;;;8.50;99.90;;;;;;5060607;28;19956;-44
2022/01/04 08:54:40;;;;;;;;;;;8.50;99.90;;;;;;5072838;28;19965;-44
2022/01/04 08:57:06;;;;;;;;;;;8.50;99.90;;;;;;5068944;28;19924;-44
2022/01/04 08:59:33;;;;;;;;;;;8.60;99.90;;;;;;5062657;28;19909;-43
2022/01/04 09:01:58;;;;;;;;;;;8.60;99.90;;;;;;5058558;28;19919;-44
2022/01/04 09:04:24;;;;;;;;;;;8.60;99.90;;;;;;5062963;28;19917;-44
2022/01/04 09:06:50;;;;;;;;;;;8.60;99.90;;;;;;5061869;28;19915;-45
2022/01/04 09:09:15;;;;;;;;;;;8.60;99.90;;;;;;5060134;28;19924;-42
2022/01/04 09:11:41;;;;;;;;;;;8.30;99.90;;;;;;5062983;28;20000;-42
2022/01/04 09:19:19;;;;;;;;;;;7.60;99.90;;;;;;5061045;28;19915;-43
2022/01/04 09:21:45;;;;;;;;;;;7.40;99.90;;;;;;5061910;28;19920;-40
2022/01/04 09:24:10;;;;;;;;;;;7.40;99.90;;;;;;5060243;28;19925;-41
2022/01/04 09:26:36;;;;;;;;;;;7.40;99.90;;;;;;5060562;28;20381;-42
2022/01/04 09:29:02;;;;;;;;;;;7.30;99.90;;;;;;5062244;28;19994;-41
2022/01/04 09:31:28;;;;;;;;;;;7.30;99.90;;;;;;5061617;28;19908;-41
2022/01/04 09:33:55;;;;;;;;;;;7.30;99.90;;;;;;5061409;28;19916;-42
2022/01/04 09:36:21;;;;;;;;;;;7.30;99.90;;;;;;5060854;28;19916;-43
2022/01/04 09:38:46;;;;;;;;;;;7.30;99.90;;;;;;5062497;28;19912;-41
2022/01/04 09:41:12;;;;;;;;;;;7.30;99.90;;;;;;5062167;28;19999;-41
2022/01/04 09:43:37;;;;;;;;;;;7.40;99.90;;;;;;5059636;28;20273;-41
2022/01/04 09:46:03;;;;;;;;;;;7.40;99.90;;;;;;5062495;28;19936;-41
2022/01/04 09:48:28;;;;;;;;;;;7.40;99.90;;;;;;5060598;28;19909;-41
2022/01/04 09:50:57;;;;;;;;;;;7.50;99.90;;;;;;5072217;28;20023;-41
2022/01/04 09:53:22;;;;;;;;;;;7.60;99.90;;;;;;5071982;28;19908;-41
2022/01/04 09:55:49;;;;;;;;;;;7.60;99.90;;;;;;5061007;28;20445;-40
2022/01/04 09:58:16;;;;;;;;;;;7.60;99.90;;;;;;5068420;28;19944;-41
2022/01/04 10:00:41;;;;;;;;;;;7.70;99.90;;;;;;5067678;28;19913;-41
2022/01/04 10:03:11;;;;;;;;;;;7.70;99.90;;;;;;5070634;28;19962;-41
2022/01/04 10:05:37;;;;;;;;;;;7.70;99.90;;;;;;5069524;28;20690;-41
2022/01/04 10:08:04;;;;;;;;;;;7.80;99.90;;;;;;5070305;28;19918;-41
2022/01/04 10:10:29;;;;;;;;;;;7.80;99.90;;;;;;5063851;28;20370;-41
2022/01/04 10:13:00;;;;;;;;;;;7.80;99.90;;;;;;5070718;28;19912;-40
2022/01/04 10:15:33;;;;;;;;;;;7.80;99.90;;;;;;5070687;28;19909;-42
2022/01/04 10:18:02;;;;;;;;;;;7.90;99.90;;;;;;5064763;28;20035;-40
2022/01/04 10:20:27;;;;;;;;;;;7.90;99.90;;;;;;5066501;28;19922;-41
2022/01/04 10:22:53;;;;;;;;;;;7.90;99.90;;;;;;5074448;28;19913;-40
2022/01/04 10:25:20;;;;;;;;;;;7.90;99.90;;;;;;5053812;28;19936;-41
2022/01/04 10:27:46;;;;;;;;;;;7.90;99.90;;;;;;5074103;28;20471;-41
2022/01/04 10:30:22;;;;;;;;;;;7.90;99.90;;;;;;5072658;28;19913;-42
2022/01/04 10:32:50;;;;;;;;;;;7.90;99.90;;;;;;5075100;28;19920;-42
2022/01/04 10:35:29;;;;;;;;;;;7.90;99.90;;;;;;5074590;28;20279;-41
2022/01/04 10:37:55;;;;;;;;;;;7.90;99.90;;;;;;5075183;28;20003;-41
2022/01/04 10:40:21;;;;;;;;;;;7.80;99.90;;;;;;5073967;28;19909;-42
2022/01/04 10:42:47;;;;;;;;;;;7.80;99.90;;;;;;5074237;28;19917;-41
2022/01/04 10:45:31;;;;;;;;;;;7.70;99.90;;;;;;5074078;28;19920;-41
2022/01/04 10:48:14;;;;;;;;;;;7.70;99.90;;;;;;5072305;28;19908;-42
2022/01/04 10:50:40;;;;;;;;;;;7.60;99.90;;;;;;5067196;28;20421;-41
2022/01/04 10:53:12;;;;;;;;;;;7.50;99.90;;;;;;5074230;28;19912;-42
2022/01/04 10:55:38;;;;;;;;;;;7.50;99.90;;;;;;5074159;28;19920;-42
2022/01/04 10:58:04;;;;;;;;;;;7.50;99.90;;;;;;5074895;28;20417;-41
2022/01/04 11:00:30;;;;;;;;;;;7.50;99.90;;;;;;5072688;28;19963;-42
2022/01/04 11:02:57;;;;;;;;;;;7.40;99.90;;;;;;5074301;28;19951;-42
2022/01/04 11:05:24;;;;;;;;;;;7.40;99.90;;;;;;5074134;28;19916;-41
2022/01/04 11:07:56;;;;;;;;;;;7.40;99.90;;;;;;5074139;28;19962;-42
2022/01/04 11:10:22;;;;;;;;;;;7.40;99.90;;;;;;5073898;28;20378;-41
2022/01/04 11:12:48;;;;;;;;;;;7.40;99.90;;;;;;5074547;28;19920;-41
2022/01/04 11:15:13;;;;;;;;;;;7.40;99.90;;;;;;5068037;28;19912;-41
2022/01/04 11:17:39;;;;;;;;;;;7.30;99.90;;;;;;5073845;28;19961;-40
2022/01/04 11:20:05;;;;;;;;;;;7.30;99.90;;;;;;5074724;28;19908;-42
2022/01/04 11:22:30;;;;;;;;;;;7.30;99.90;;;;;;5072065;28;19920;-42
2022/01/04 11:24:56;;;;;;;;;;;7.30;99.90;;;;;;5074048;28;19924;-41
2022/01/04 11:27:21;;;;;;;;;;;7.30;99.90;;;;;;5072848;28;19979;-40
2022/01/04 11:29:48;;;;;;;;;;;7.30;99.90;;;;;;5072524;28;19927;-41
2022/01/04 11:32:48;;;;;;;;;;;7.20;99.90;;;;;;5028468;28;19929;-40
2022/01/04 11:35:16;;;;;;;;;;;7.30;99.90;;;;;;5028608;28;20391;-41
2022/01/04 11:37:50;;;;;;;;;;;7.30;99.90;;;;;;5029550;28;19963;-41
2022/01/04 11:40:23;;;;;;;;;;;7.40;99.90;;;;;;5029672;28;19944;-40
2022/01/04 11:42:48;;;;;;;;;;;7.40;99.90;;;;;;5028514;28;20452;-41
2022/01/04 11:45:16;;;;;;;;;;;7.30;99.90;;;;;;5029468;28;20013;-40
2022/01/04 11:47:46;;;;;;;;;;;7.30;99.90;;;;;;5028520;28;19961;-40
2022/01/04 11:50:20;;;;;;;;;;;7.20;99.90;;;;;;5027823;28;19909;-39
2022/01/04 11:52:46;;;;;;;;;;;7.20;99.90;;;;;;5029230;28;19921;-40
2022/01/04 11:55:16;;;;;;;;;;;7.10;99.90;;;;;;5029226;28;19916;-41
2022/01/04 11:57:41;;;;;;;;;;;7.10;99.90;;;;;;5028379;28;19916;-41
2022/01/04 12:00:07;;;;;;;;;;;7.10;99.90;;;;;;5028112;28;19913;-42
2022/01/04 12:02:38;;;;;;;;;;;7.00;99.90;;;;;;5028586;28;20012;-41
2022/01/04 12:05:13;;;;;;;;;;;7.00;99.90;;;;;;5024059;28;19914;-41
2022/01/04 12:07:38;;;;;;;;;;;7.00;99.90;;;;;;5028549;28;20353;-41
2022/01/04 12:10:19;;;;;;;;;;;7.00;99.90;;;;;;5028402;28;20000;-40
2022/01/04 12:12:54;;;;;;;;;;;7.00;99.90;;;;;;5028625;28;19917;-40
2022/01/04 12:15:35;;;;;;;;;;;7.00;99.90;;;;;;5028402;28;19910;-42
2022/01/04 12:18:01;;;;;;;;;;;7.00;99.90;;;;;;5024643;28;20012;-40
2022/01/04 12:20:42;;;;;;;;;;;6.90;99.90;;;;;;5028470;28;19941;-40
2022/01/04 12:23:22;;;;;;;;;;;6.90;99.90;;;;;;5028451;28;19917;-40
2022/01/04 12:26:06;;;;;;;;;;;6.80;99.90;;;;;;5026884;28;20502;-40
2022/01/04 12:28:35;;;;;;;;;;;6.80;99.90;;;;;;5028193;28;19917;-40
2022/01/04 12:31:13;;;;;;;;;;;6.80;99.90;;;;;;5027977;28;19928;-40
2022/01/04 12:33:39;;;;;;;;;;;6.70;99.90;;;;;;5026066;28;20345;-40
2022/01/04 12:36:04;;;;;;;;;;;6.50;99.90;;;;;;5028069;28;19921;-40
2022/01/04 12:38:32;;;;;;;;;;;6.50;99.90;;;;;;5026174;28;20272;-41
2022/01/04 12:40:58;;;;;;;;;;;6.40;99.90;;;;;;5027491;28;19971;-40
2022/01/04 12:43:23;;;;;;;;;;;6.30;99.90;;;;;;5019174;28;20300;-40
2022/01/04 12:45:59;;;;;;;;;;;6.40;99.90;;;;;;5014095;28;20419;-40
2022/01/04 12:48:44;;;;;;;;;;;6.40;99.90;;;;;;5014437;28;19917;-40
2022/01/04 12:51:23;;;;;;;;;;;6.40;99.90;;;;;;5014334;28;19924;-40
2022/01/04 12:53:48;;;;;;;;;;;6.40;99.90;;;;;;5014001;28;20285;-40
2022/01/04 12:56:14;;;;;;;;;;;6.40;99.90;;;;;;5014256;28;19909;-41
2022/01/04 12:58:39;;;;;;;;;;;6.40;99.90;;;;;;5014289;28;19999;-39
2022/01/04 13:01:05;;;;;;;;;;;6.50;99.90;;;;;;5014260;28;19909;-40
2022/01/04 13:03:31;;;;;;;;;;;6.60;99.90;;;;;;5014544;28;19913;-40
2022/01/04 13:05:58;;;;;;;;;;;6.60;99.90;;;;;;5014550;28;20514;-40
2022/01/04 13:08:27;;;;;;;;;;;6.70;99.90;;;;;;5013042;28;19913;-41
2022/01/04 13:11:05;;;;;;;;;;;6.70;99.90;;;;;;5005261;28;19921;-40
2022/01/04 13:13:31;;;;;;;;;;;6.80;99.90;;;;;;5012536;28;19953;-43
2022/01/04 13:16:15;;;;;;;;;;;6.90;99.90;;;;;;5010436;28;19963;-41
2022/01/04 13:18:40;;;;;;;;;;;6.90;99.90;;;;;;5012966;28;20001;-42
2022/01/04 13:21:06;;;;;;;;;;;6.90;99.90;;;;;;5013865;28;20488;-42
2022/01/04 13:23:38;;;;;;;;;;;6.80;99.90;;;;;;5014048;28;19975;-43
2022/01/04 13:26:03;;;;;;;;;;;6.80;99.90;;;;;;5006577;28;20269;-43
2022/01/04 13:28:29;;;;;;;;;;;6.80;99.90;;;;;;5013572;28;19916;-43
2022/01/04 13:30:54;;;;;;;;;;;6.70;99.90;;;;;;5013806;28;20363;-42
2022/01/04 13:33:23;;;;;;;;;;;6.70;99.90;;;;;;5013694;28;19910;-42
2022/01/04 13:35:49;;;;;;;;;;;6.70;99.90;;;;;;5013183;28;19921;-43
2022/01/04 13:38:21;;;;;;;;;;;6.70;99.90;;;;;;5014278;28;19910;-42
2022/01/04 13:40:47;;;;;;;;;;;6.70;99.90;;;;;;5013983;28;20000;-42
2022/01/04 13:43:13;;;;;;;;;;;6.70;99.90;;;;;;5013590;28;19992;-42
2022/01/04 13:45:44;;;;;;;;;;;6.60;99.90;;;;;;5005865;28;20380;-42
2022/01/04 13:48:10;;;;;;;;;;;6.60;99.90;;;;;;5013996;28;19909;-42
2022/01/04 13:50:37;;;;;;;;;;;6.60;99.90;;;;;;5012973;28;20333;-42
2022/01/04 13:53:04;;;;;;;;;;;6.70;99.90;;;;;;5013943;28;19910;-44
2022/01/04 13:55:43;;;;;;;;;;;6.70;99.90;;;;;;5011644;28;19960;-43
2022/01/04 13:58:09;;;;;;;;;;;6.70;99.90;;;;;;5013310;28;19913;-43
2022/01/04 14:00:35;;;;;;;;;;;6.70;99.90;;;;;;5013139;28;20394;-42
2022/01/04 14:03:01;;;;;;;;;;;6.70;99.90;;;;;;5013004;28;20009;-42
2022/01/04 14:05:34;;;;;;;;;;;6.70;99.90;;;;;;5012690;28;19961;-42
2022/01/04 14:07:59;;;;;;;;;;;6.70;99.90;;;;;;5013365;28;19975;-42
2022/01/04 14:10:44;;;;;;;;;;;6.70;99.90;;;;;;5012540;28;20368;-42
2022/01/04 14:13:28;;;;;;;;;;;6.70;99.90;;;;;;5006788;28;19913;-44
2022/01/04 14:16:13;;;;;;;;;;;6.90;99.90;;;;;;5012644;28;19913;-42
2022/01/04 14:18:59;;;;;;;;;;;7.00;99.90;;;;;;5004703;28;21236;-42
2022/01/04 14:21:37;;;;;;;;;;;7.20;99.90;;;;;;4991876;28;19916;-42
2022/01/04 14:24:06;;;;;;;;;;;7.50;99.90;;;;;;5006471;28;19921;-41
2022/01/04 14:26:32;;;;;;;;;;;7.80;99.90;;;;;;5012750;28;19925;-42
2022/01/04 14:28:59;;;;;;;;;;;8.10;99.90;;;;;;5011812;28;19909;-43
2022/01/04 14:31:24;;;;;;;;;;;8.40;99.90;;;;;;5011861;28;20368;-43
2022/01/04 14:33:50;;;;;;;;;;;8.60;99.90;;;;;;5008561;28;19914;-43
2022/01/04 14:38:28;;;;;;;;;;;8.50;99.90;;;;;;5118098;27;19922;-43
2022/01/04 14:40:54;;;;;;;;;;;8.40;99.90;;;;;;5111055;27;19965;-44
2022/01/04 14:43:19;;;;;;;;;;;8.20;99.90;;;;;;5127048;27;19912;-45
2022/01/04 14:45:45;;;;;;;;;;;7.80;99.90;;;;;;5133647;27;19956;-42